Albion, New York
Current Conditions -  °F | °C
As of 8:54 PM on Monday 22 Dec 2014 (Local Time) from KROC Reporting Station
Overcast Overcast  
Wind Chill: -2°   Ceiling: 18000
Heat Index:   Visibility: 10mi
Dew Point: -3°   Wind: 6mph
Humidity: 75%   Direction: 140°SE
Pressure: 30.07"   Gusts: NA
Location:  43.25°N, 78.19°W
Report Text: KROC 230154Z 14005KT 10SM OVC180 01/M03 A3007 RMK AO2 SLP194 T00061033
Loading
Personal Weather Stations






























Interactive Weather Map New forecast layout! Learn more

10-Day Weather Forecast

Advertisements
Track Severe Weather on mobile